Baldwin, Iowa
Current Conditions -  °F | °C
As of 6:55 AM on Wednesday 26 Nov 2014 (Local Time) from KMXO Reporting Station
Overcast Overcast  
Wind Chill: 13°   Ceiling: 7500
Heat Index: 21°   Visibility: 8mi
Dew Point: 19°   Wind: 7mph
Humidity: 93%   Direction: 110°ESE
Pressure: 30.06"   Gusts: NA
Location:  42.07°N, 90.84°W
Report Text: KMXO 261255Z AUTO 11006KT 8SM OVC075 M06/M07 A3006 RMK AO2
Loading
Personal Weather Stations






























Interactive Weather Map New forecast layout! Learn more

10-Day Weather Forecast

Advertisements
Track Severe Weather on mobile